createdAt,value
2019-05-25T00:00:48.293Z,18.45
2019-05-25T00:01:48.285Z,18.41
2019-05-25T00:02:48.281Z,18.42
2019-05-25T00:03:48.258Z,18.42
2019-05-25T00:04:48.265Z,18.33
2019-05-25T00:05:48.236Z,18.41
2019-05-25T00:06:48.225Z,18.42
2019-05-25T00:07:48.213Z,18.47
2019-05-25T00:08:53.224Z,18.50
2019-05-25T00:09:48.689Z,18.48
2019-05-25T00:10:48.184Z,18.39
2019-05-25T00:11:48.170Z,18.36
2019-05-25T00:12:48.159Z,18.37
2019-05-25T00:13:48.151Z,18.45
2019-05-25T00:14:48.154Z,18.36
2019-05-25T00:15:48.123Z,18.33
2019-05-25T00:16:48.121Z,18.30
2019-05-25T00:17:48.101Z,18.26
2019-05-25T00:18:48.138Z,18.20
2019-05-25T00:19:53.113Z,18.12
2019-05-25T00:20:48.069Z,18.20
2019-05-25T00:21:48.057Z,18.14
2019-05-25T00:22:48.051Z,18.14
2019-05-25T00:23:48.033Z,18.12
2019-05-25T00:24:48.034Z,18.15
2019-05-25T00:25:48.027Z,18.15
2019-05-25T00:26:47.999Z,18.12
2019-05-25T00:27:47.989Z,18.18
2019-05-25T00:28:47.977Z,18.15
2019-05-25T00:29:47.974Z,18.15
2019-05-25T00:30:52.981Z,18.15
2019-05-25T00:31:47.951Z,18.02
2019-05-25T00:32:47.934Z,18.14
2019-05-25T00:33:47.925Z,18.05
2019-05-25T00:34:47.956Z,18.00
2019-05-25T00:35:47.921Z,18.05
2019-05-25T00:36:47.929Z,17.99
2019-05-25T00:37:47.907Z,18.07
2019-05-25T00:38:47.892Z,18.02
2019-05-25T00:39:47.903Z,18.00
2019-05-25T00:40:47.850Z,17.96
2019-05-25T00:41:52.855Z,17.93
2019-05-25T00:42:47.866Z,17.95
2019-05-25T00:43:47.929Z,17.90
2019-05-25T00:44:47.831Z,17.86
2019-05-25T00:45:47.799Z,17.86
2019-05-25T00:46:47.781Z,17.86
2019-05-25T00:47:47.764Z,17.87
2019-05-25T00:48:47.765Z,17.84
2019-05-25T00:49:47.778Z,17.81
2019-05-25T00:50:47.749Z,17.82
2019-05-25T00:51:47.733Z,17.82
2019-05-25T00:52:52.739Z,17.78
2019-05-25T00:53:47.710Z,17.74
2019-05-25T00:54:47.732Z,17.82
2019-05-25T00:55:47.710Z,17.81
2019-05-25T00:56:47.720Z,17.79
2019-05-25T00:57:47.653Z,17.75
2019-05-25T00:58:47.647Z,17.79
2019-05-25T00:59:47.631Z,17.81
2019-05-25T01:00:47.659Z,17.81
2019-05-25T01:01:47.636Z,17.78
2019-05-25T01:02:47.610Z,17.81
2019-05-25T01:03:52.617Z,17.81
2019-05-25T01:04:47.588Z,17.72
2019-05-25T01:05:47.587Z,17.79
2019-05-25T01:06:47.562Z,17.78
2019-05-25T01:07:47.552Z,17.78
2019-05-25T01:08:47.531Z,17.75
2019-05-25T01:09:47.519Z,17.74
2019-05-25T01:10:47.535Z,17.77
2019-05-25T01:11:47.528Z,17.70
2019-05-25T01:12:47.485Z,17.71
2019-05-25T01:13:47.503Z,17.62
2019-05-25T01:14:52.517Z,17.68
2019-05-25T01:15:47.473Z,17.58
2019-05-25T01:16:47.450Z,17.62
2019-05-25T01:17:47.430Z,17.64
2019-05-25T01:18:47.423Z,17.55
2019-05-25T01:19:47.422Z,17.64
2019-05-25T01:20:47.427Z,17.66
2019-05-25T01:21:47.397Z,17.58
2019-05-25T01:22:47.393Z,17.58
2019-05-25T01:23:47.392Z,17.54
2019-05-25T01:24:47.356Z,17.59
2019-05-25T01:25:52.390Z,17.55
2019-05-25T01:26:47.342Z,17.56
2019-05-25T01:27:47.324Z,17.56
2019-05-25T01:28:47.342Z,17.43
2019-05-25T01:29:47.316Z,17.51
2019-05-25T01:30:47.344Z,17.48
2019-05-25T01:31:47.281Z,17.51
2019-05-25T01:32:47.272Z,17.44
2019-05-25T01:33:47.258Z,17.44
2019-05-25T01:34:47.268Z,17.49
2019-05-25T01:35:47.272Z,17.44
2019-05-25T01:36:52.253Z,17.31
2019-05-25T01:37:48.680Z,17.34
2019-05-25T01:38:47.210Z,17.40
2019-05-25T01:39:47.210Z,17.34
2019-05-25T01:40:47.210Z,17.37
2019-05-25T01:41:47.216Z,17.31
2019-05-25T01:42:47.165Z,17.34
2019-05-25T01:43:47.142Z,17.30
2019-05-25T01:44:47.133Z,17.34
2019-05-25T01:45:47.169Z,17.34
2019-05-25T01:46:47.117Z,17.40
2019-05-25T01:47:52.126Z,17.41
2019-05-25T01:48:47.095Z,17.44
2019-05-25T01:49:47.088Z,17.49
2019-05-25T01:50:47.090Z,17.44
2019-05-25T01:51:47.066Z,17.40
2019-05-25T01:52:47.056Z,17.36
2019-05-25T01:53:47.041Z,17.40
2019-05-25T01:54:59.542Z,17.46
2019-05-25T01:55:48.064Z,17.37
2019-05-25T01:56:47.004Z,17.44
2019-05-25T01:57:47.037Z,17.43
2019-05-25T01:58:52.020Z,17.36
2019-05-25T01:59:46.968Z,17.31
2019-05-25T02:00:46.965Z,17.28
2019-05-25T02:01:46.965Z,17.40
2019-05-25T02:02:46.937Z,17.34
2019-05-25T02:03:46.975Z,17.34
2019-05-25T02:04:46.919Z,17.43
2019-05-25T02:05:46.945Z,17.36
2019-05-25T02:06:46.919Z,17.33
2019-05-25T02:07:46.905Z,17.43
2019-05-25T02:08:46.878Z,17.40
2019-05-25T02:09:51.882Z,17.30
2019-05-25T02:10:46.862Z,17.30
2019-05-25T02:11:46.882Z,17.34
2019-05-25T02:12:46.836Z,17.31
2019-05-25T02:13:46.818Z,17.25
2019-05-25T02:14:46.802Z,17.30
2019-05-25T02:15:46.797Z,17.23
2019-05-25T02:16:46.807Z,17.26
2019-05-25T02:17:46.771Z,17.16
2019-05-25T02:18:46.770Z,17.23
2019-05-25T02:19:46.754Z,17.28
2019-05-25T02:20:51.759Z,17.25
2019-05-25T02:21:46.761Z,17.23
2019-05-25T02:22:46.715Z,17.26
2019-05-25T02:23:46.709Z,17.19
2019-05-25T02:24:46.712Z,17.23
2019-05-25T02:25:46.689Z,17.21
2019-05-25T02:26:46.711Z,17.21
2019-05-25T02:27:46.669Z,17.19
2019-05-25T02:28:46.647Z,17.18
2019-05-25T02:29:46.648Z,17.26
2019-05-25T02:30:46.652Z,17.15
2019-05-25T02:31:51.674Z,17.08
2019-05-25T02:32:46.664Z,17.11
2019-05-25T02:33:46.604Z,17.11
2019-05-25T02:34:46.592Z,17.14
2019-05-25T02:35:46.596Z,17.06
2019-05-25T02:36:46.583Z,17.12
2019-05-25T02:37:46.579Z,17.11
2019-05-25T02:38:46.556Z,17.11
2019-05-25T02:39:46.534Z,16.96
2019-05-25T02:40:46.531Z,16.94
2019-05-25T02:41:46.502Z,16.96
2019-05-25T02:42:51.548Z,16.94
2019-05-25T02:43:46.489Z,16.91
2019-05-25T02:44:46.484Z,16.86
2019-05-25T02:45:46.469Z,16.89
2019-05-25T02:46:46.455Z,16.85
2019-05-25T02:47:46.495Z,16.85
2019-05-25T02:48:46.436Z,16.85
2019-05-25T02:49:46.424Z,16.88
2019-05-25T02:50:46.455Z,16.89
2019-05-25T02:51:46.396Z,16.88
2019-05-25T02:52:46.402Z,16.91
2019-05-25T02:53:51.421Z,16.89
2019-05-25T02:54:46.369Z,17.01
2019-05-25T02:55:46.351Z,17.00
2019-05-25T02:56:46.341Z,16.98
2019-05-25T02:57:46.378Z,17.07
2019-05-25T02:58:46.332Z,17.06
2019-05-25T02:59:46.309Z,17.03
2019-05-25T03:00:46.297Z,17.08
2019-05-25T03:01:46.287Z,17.15
2019-05-25T03:02:46.334Z,17.16
2019-05-25T03:03:46.309Z,17.22
2019-05-25T03:04:51.272Z,17.11
2019-05-25T03:05:46.248Z,17.22
2019-05-25T03:06:46.244Z,17.22
2019-05-25T03:07:46.251Z,17.25
2019-05-25T03:08:46.261Z,17.26
2019-05-25T03:09:46.203Z,17.22
2019-05-25T03:10:46.185Z,17.21
2019-05-25T03:11:46.183Z,17.16
2019-05-25T03:12:46.190Z,17.18
2019-05-25T03:13:46.151Z,17.16
2019-05-25T03:14:46.147Z,17.18
2019-05-25T03:15:51.164Z,17.06
2019-05-25T03:16:46.123Z,17.07
2019-05-25T03:17:46.136Z,17.03
2019-05-25T03:18:46.097Z,17.07
2019-05-25T03:19:46.095Z,17.08
2019-05-25T03:20:46.100Z,17.08
2019-05-25T03:21:46.068Z,17.11
2019-05-25T03:22:46.070Z,17.11
2019-05-25T03:23:46.045Z,17.07
2019-05-25T03:24:46.042Z,17.12
2019-05-25T03:25:49.492Z,17.11
2019-05-25T03:26:51.041Z,17.07
2019-05-25T03:27:46.034Z,17.11
2019-05-25T03:28:46.027Z,17.07
2019-05-25T03:29:46.023Z,16.98
2019-05-25T03:30:45.973Z,17.11
2019-05-25T03:31:46.053Z,17.12
2019-05-25T03:32:45.983Z,16.96
2019-05-25T03:33:45.975Z,16.94
2019-05-25T03:34:45.920Z,16.94
2019-05-25T03:35:45.909Z,16.85
2019-05-25T03:36:45.912Z,16.86
2019-05-25T03:37:50.934Z,16.91
2019-05-25T03:38:45.880Z,16.89
2019-05-25T03:39:45.871Z,16.93
2019-05-25T03:40:45.855Z,16.89
2019-05-25T03:41:45.842Z,16.93
2019-05-25T03:42:45.856Z,16.86
2019-05-25T03:43:45.817Z,17.00
2019-05-25T03:44:45.810Z,16.86
2019-05-25T03:45:45.806Z,16.89
2019-05-25T03:46:45.784Z,16.86
2019-05-25T03:47:45.823Z,16.96
2019-05-25T03:48:50.840Z,16.91
2019-05-25T03:49:45.754Z,16.81
2019-05-25T03:50:45.749Z,16.91
2019-05-25T03:51:45.738Z,16.89
2019-05-25T03:52:45.715Z,16.86
2019-05-25T03:53:45.732Z,16.89
2019-05-25T03:54:45.717Z,16.93
2019-05-25T03:55:45.684Z,16.88
2019-05-25T03:56:45.682Z,16.86
2019-05-25T03:57:45.659Z,16.82
2019-05-25T03:58:45.660Z,16.89
2019-05-25T03:59:50.673Z,16.86
2019-05-25T04:00:45.631Z,16.86
2019-05-25T04:01:45.618Z,16.89
2019-05-25T04:02:45.616Z,16.85
2019-05-25T04:03:45.606Z,16.86
2019-05-25T04:04:45.583Z,16.91
2019-05-25T04:05:45.578Z,16.86
2019-05-25T04:06:45.558Z,16.89
2019-05-25T04:07:45.550Z,16.89
2019-05-25T04:08:45.547Z,16.82
2019-05-25T04:09:45.527Z,16.85
2019-05-25T04:10:50.541Z,16.85
2019-05-25T04:11:45.505Z,16.88
2019-05-25T04:12:45.504Z,16.79
2019-05-25T04:13:45.490Z,16.85
2019-05-25T04:14:45.471Z,16.86
2019-05-25T04:15:45.462Z,16.81
2019-05-25T04:16:45.450Z,16.83
2019-05-25T04:17:45.455Z,16.85
2019-05-25T04:18:45.447Z,16.82
2019-05-25T04:19:45.416Z,16.82
2019-05-25T04:20:45.407Z,16.79
2019-05-25T04:21:50.417Z,16.71
2019-05-25T04:22:45.389Z,16.78
2019-05-25T04:23:45.396Z,16.81
2019-05-25T04:24:45.357Z,16.78
2019-05-25T04:25:45.369Z,16.79
2019-05-25T04:26:45.337Z,16.75
2019-05-25T04:27:45.324Z,16.79
2019-05-25T04:28:45.318Z,16.71
2019-05-25T04:29:45.314Z,16.82
2019-05-25T04:30:45.296Z,16.73
2019-05-25T04:31:45.280Z,16.76
2019-05-25T04:32:50.292Z,16.70
2019-05-25T04:33:45.264Z,16.73
2019-05-25T04:34:45.269Z,16.76
2019-05-25T04:35:45.241Z,16.67
2019-05-25T04:36:45.225Z,16.68
2019-05-25T04:37:45.218Z,16.63
2019-05-25T04:38:45.218Z,16.70
2019-05-25T04:39:45.202Z,16.67
2019-05-25T04:40:45.180Z,16.71
2019-05-25T04:41:45.173Z,16.64
2019-05-25T04:42:45.161Z,16.71
2019-05-25T04:43:50.171Z,16.67
2019-05-25T04:44:45.164Z,16.56
2019-05-25T04:45:45.128Z,16.58
2019-05-25T04:46:45.115Z,16.61
2019-05-25T04:47:45.163Z,16.61
2019-05-25T04:48:45.093Z,16.60
2019-05-25T04:49:45.091Z,16.50
2019-05-25T04:50:45.067Z,16.49
2019-05-25T04:51:45.057Z,16.49
2019-05-25T04:52:45.046Z,16.52
2019-05-25T04:53:45.034Z,16.52
2019-05-25T04:54:50.066Z,16.56
2019-05-25T04:55:45.012Z,16.56
2019-05-25T04:56:45.002Z,16.46
2019-05-25T04:57:44.995Z,16.56
2019-05-25T04:58:44.978Z,16.53
2019-05-25T04:59:44.978Z,16.57
2019-05-25T05:00:44.963Z,16.58
2019-05-25T05:01:44.957Z,16.58
2019-05-25T05:02:44.942Z,16.57
2019-05-25T05:03:44.922Z,16.58
2019-05-25T05:04:44.932Z,16.56
2019-05-25T05:05:49.926Z,16.63
2019-05-25T05:06:44.893Z,16.58
2019-05-25T05:07:44.882Z,16.57
2019-05-25T05:08:44.871Z,16.58
2019-05-25T05:09:44.855Z,16.64
2019-05-25T05:10:44.856Z,16.57
2019-05-25T05:11:44.834Z,16.70
2019-05-25T05:12:44.823Z,16.75
2019-05-25T05:13:44.814Z,16.66
2019-05-25T05:14:44.802Z,16.82
2019-05-25T05:15:44.803Z,16.79
2019-05-25T05:16:49.805Z,16.78
2019-05-25T05:17:44.767Z,16.81
2019-05-25T05:18:44.756Z,16.78
2019-05-25T05:19:44.742Z,16.85
2019-05-25T05:20:44.744Z,16.79
2019-05-25T05:21:44.748Z,16.82
2019-05-25T05:22:44.710Z,16.81
2019-05-25T05:23:44.700Z,16.81
2019-05-25T05:24:44.690Z,16.75
2019-05-25T05:25:44.690Z,16.79
2019-05-25T05:26:55.447Z,16.83
2019-05-25T05:27:50.679Z,16.86
2019-05-25T05:28:44.644Z,16.93
2019-05-25T05:29:44.635Z,17.00
2019-05-25T05:30:44.633Z,16.98
2019-05-25T05:31:44.614Z,17.04
2019-05-25T05:32:44.599Z,17.11
2019-05-25T05:33:44.589Z,17.06
2019-05-25T05:34:44.580Z,17.11
2019-05-25T05:35:44.587Z,17.08
2019-05-25T05:36:44.558Z,17.12
2019-05-25T05:37:44.552Z,17.11
2019-05-25T05:38:49.557Z,17.21
2019-05-25T05:39:44.522Z,17.18
2019-05-25T05:40:44.523Z,17.18
2019-05-25T05:41:44.500Z,17.12
2019-05-25T05:42:44.488Z,17.16
2019-05-25T05:43:44.476Z,17.28
2019-05-25T05:44:44.476Z,17.23
2019-05-25T05:45:44.465Z,17.21
2019-05-25T05:46:44.457Z,17.18
2019-05-25T05:47:44.433Z,17.25
2019-05-25T05:48:44.426Z,17.18
2019-05-25T05:49:49.434Z,17.23
2019-05-25T05:50:44.426Z,17.31
2019-05-25T05:51:44.388Z,17.36
2019-05-25T05:52:44.377Z,17.33
2019-05-25T05:53:44.372Z,17.33
2019-05-25T05:54:44.356Z,17.31
2019-05-25T05:55:44.362Z,17.34
2019-05-25T05:56:44.334Z,17.28
2019-05-25T05:57:44.328Z,17.31
2019-05-25T05:58:44.309Z,17.44
2019-05-25T05:59:44.299Z,17.43
2019-05-25T06:00:49.322Z,17.44
2019-05-25T06:01:44.291Z,17.37
2019-05-25T06:02:44.270Z,17.43
2019-05-25T06:03:44.260Z,17.55
2019-05-25T06:04:44.261Z,17.63
2019-05-25T06:05:44.231Z,17.66
2019-05-25T06:06:44.233Z,17.75
2019-05-25T06:07:44.220Z,17.70
2019-05-25T06:08:44.199Z,17.78
2019-05-25T06:09:44.189Z,17.86
2019-05-25T06:10:44.175Z,17.86
2019-05-25T06:11:49.209Z,17.87
2019-05-25T06:12:44.161Z,17.84
2019-05-25T06:13:44.154Z,17.79
2019-05-25T06:14:44.135Z,17.86
2019-05-25T06:15:44.127Z,17.86
2019-05-25T06:16:44.125Z,17.90
2019-05-25T06:17:44.101Z,17.84
2019-05-25T06:18:44.093Z,17.86
2019-05-25T06:19:44.099Z,17.82
2019-05-25T06:20:44.066Z,17.77
2019-05-25T06:21:44.109Z,17.84
2019-05-25T06:22:49.069Z,17.99
2019-05-25T06:23:44.033Z,17.90
2019-05-25T06:24:44.026Z,18.02
2019-05-25T06:25:44.012Z,18.02
2019-05-25T06:26:44.014Z,18.15
2019-05-25T06:27:43.991Z,18.15
2019-05-25T06:28:43.979Z,18.35
2019-05-25T06:29:43.977Z,18.42
2019-05-25T06:30:43.965Z,18.58
2019-05-25T06:31:43.974Z,18.55
2019-05-25T06:32:43.934Z,18.57
2019-05-25T06:33:48.945Z,18.50
2019-05-25T06:34:43.912Z,18.58
2019-05-25T06:35:43.902Z,18.51
2019-05-25T06:36:43.896Z,18.42
2019-05-25T06:37:43.890Z,18.47
2019-05-25T06:38:43.871Z,18.41
2019-05-25T06:39:43.857Z,18.37
2019-05-25T06:40:43.846Z,18.36
2019-05-25T06:41:43.838Z,18.41
2019-05-25T06:42:43.842Z,18.27
2019-05-25T06:43:43.817Z,18.12
2019-05-25T06:44:48.849Z,18.10
2019-05-25T06:45:43.799Z,18.11
2019-05-25T06:46:43.777Z,18.05
2019-05-25T06:47:43.787Z,18.18
2019-05-25T06:48:43.760Z,18.14
2019-05-25T06:49:43.820Z,18.12
2019-05-25T06:50:43.756Z,18.15
2019-05-25T06:51:43.732Z,18.20
2019-05-25T06:52:43.721Z,18.15
2019-05-25T06:53:43.699Z,18.15
2019-05-25T06:54:43.689Z,18.17
2019-05-25T06:55:48.702Z,18.21
2019-05-25T06:56:43.665Z,18.12
2019-05-25T06:57:44.067Z,18.11
2019-05-25T06:58:43.643Z,18.05
2019-05-25T06:59:43.637Z,17.96
2019-05-25T07:00:43.620Z,17.86
2019-05-25T07:01:43.610Z,17.89
2019-05-25T07:02:43.609Z,17.81
2019-05-25T07:03:43.584Z,17.82
2019-05-25T07:04:43.582Z,17.87
2019-05-25T07:05:43.591Z,17.95
2019-05-25T07:06:48.576Z,17.99
2019-05-25T07:07:43.565Z,17.99
2019-05-25T07:08:43.530Z,18.21
2019-05-25T07:09:43.532Z,18.17
2019-05-25T07:10:43.513Z,18.15
2019-05-25T07:11:43.499Z,18.23
2019-05-25T07:12:43.498Z,18.29
2019-05-25T07:13:43.475Z,18.25
2019-05-25T07:14:43.463Z,18.25
2019-05-25T07:15:43.458Z,18.20
2019-05-25T07:16:43.445Z,18.29
2019-05-25T07:17:48.474Z,18.44
2019-05-25T07:18:43.418Z,18.47
2019-05-25T07:19:43.411Z,18.45
2019-05-25T07:20:43.395Z,18.37
2019-05-25T07:21:43.385Z,18.45
2019-05-25T07:22:43.400Z,18.51
2019-05-25T07:23:43.361Z,18.54
2019-05-25T07:24:43.349Z,18.52
2019-05-25T07:25:43.339Z,18.57
2019-05-25T07:26:43.329Z,18.55
2019-05-25T07:27:58.178Z,18.54
2019-05-25T07:28:49.362Z,18.57
2019-05-25T07:29:43.295Z,18.63
2019-05-25T07:30:46.503Z,18.69
2019-05-25T07:31:43.270Z,18.65
2019-05-25T07:32:43.261Z,18.78
2019-05-25T07:33:43.267Z,18.60
2019-05-25T07:34:43.241Z,18.69
2019-05-25T07:35:43.226Z,18.75
2019-05-25T07:36:43.213Z,18.73
2019-05-25T07:37:43.204Z,18.80
2019-05-25T07:38:43.209Z,18.80
2019-05-25T07:39:48.204Z,18.90
2019-05-25T07:40:43.170Z,18.99
2019-05-25T07:41:43.161Z,18.95
2019-05-25T07:42:43.147Z,18.88
2019-05-25T07:43:43.149Z,18.99
2019-05-25T07:44:43.126Z,19.00
2019-05-25T07:45:43.127Z,18.95
2019-05-25T07:46:43.109Z,19.00
2019-05-25T07:47:43.093Z,18.95
2019-05-25T07:48:43.118Z,19.06
2019-05-25T07:49:43.070Z,19.02
2019-05-25T07:50:48.083Z,18.92
2019-05-25T07:51:43.047Z,18.91
2019-05-25T07:52:43.037Z,18.91
2019-05-25T07:53:43.038Z,18.98
2019-05-25T07:54:43.015Z,18.90
2019-05-25T07:55:43.007Z,19.08
2019-05-25T07:56:42.995Z,19.08
2019-05-25T07:57:42.979Z,19.07
2019-05-25T07:58:42.989Z,18.94
2019-05-25T07:59:42.960Z,18.95
2019-05-25T08:00:42.952Z,18.88
2019-05-25T08:01:47.960Z,18.90
2019-05-25T08:02:42.934Z,18.84
2019-05-25T08:03:42.959Z,18.80
2019-05-25T08:04:42.917Z,18.95
2019-05-25T08:05:42.917Z,19.21
2019-05-25T08:06:42.886Z,19.46
2019-05-25T08:07:42.871Z,19.40
2019-05-25T08:08:42.861Z,19.47
2019-05-25T08:09:42.889Z,19.58
2019-05-25T08:10:42.840Z,19.76
2019-05-25T08:11:42.829Z,19.92
2019-05-25T08:12:47.849Z,19.76
2019-05-25T08:13:42.807Z,19.77
2019-05-25T08:14:45.031Z,19.74
2019-05-25T08:15:42.782Z,19.71
2019-05-25T08:16:42.773Z,19.65
2019-05-25T08:17:42.759Z,19.65
2019-05-25T08:18:42.801Z,19.58
2019-05-25T08:19:42.756Z,19.63
2019-05-25T08:20:42.727Z,19.54
2019-05-25T08:21:42.725Z,19.54
2019-05-25T08:22:42.707Z,19.48
2019-05-25T08:23:47.715Z,19.54
2019-05-25T08:24:42.693Z,19.44
2019-05-25T08:25:42.674Z,19.36
2019-05-25T08:26:42.661Z,19.40
2019-05-25T08:27:42.650Z,19.36
2019-05-25T08:28:42.637Z,19.39
2019-05-25T08:29:42.651Z,19.37
2019-05-25T08:30:42.622Z,19.51
2019-05-25T08:31:42.626Z,19.51
2019-05-25T08:32:42.594Z,19.65
2019-05-25T08:33:42.584Z,19.55
2019-05-25T08:34:47.609Z,19.54
2019-05-25T08:35:42.560Z,19.56
2019-05-25T08:36:42.552Z,19.54
2019-05-25T08:37:42.541Z,19.63
2019-05-25T08:38:42.528Z,19.62
2019-05-25T08:39:42.528Z,19.66
2019-05-25T08:40:42.520Z,19.61
2019-05-25T08:41:45.482Z,19.65
2019-05-25T08:42:42.483Z,19.61
2019-05-25T08:43:42.484Z,19.58
2019-05-25T08:44:42.470Z,19.59
2019-05-25T08:45:47.493Z,19.59
2019-05-25T08:46:42.437Z,19.66
2019-05-25T08:47:42.436Z,19.59
2019-05-25T08:48:42.416Z,19.71
2019-05-25T08:49:42.431Z,19.68
2019-05-25T08:50:42.396Z,19.58
2019-05-25T08:51:42.385Z,19.66
2019-05-25T08:52:42.372Z,19.77
2019-05-25T08:53:43.462Z,19.76
2019-05-25T08:54:42.368Z,19.76
2019-05-25T08:55:42.339Z,19.81
2019-05-25T08:56:47.349Z,19.77
2019-05-25T08:57:42.314Z,19.78
2019-05-25T08:58:48.295Z,19.83
2019-05-25T08:59:43.308Z,19.88
2019-05-25T09:00:42.292Z,19.84
2019-05-25T09:01:42.287Z,19.95
2019-05-25T09:02:42.259Z,19.95
2019-05-25T09:03:42.247Z,20.08
2019-05-25T09:04:42.264Z,19.91
2019-05-25T09:05:42.237Z,20.06
2019-05-25T09:06:42.219Z,20.13
2019-05-25T09:07:47.227Z,20.05
2019-05-25T09:08:42.199Z,20.08
2019-05-25T09:09:42.181Z,20.13
2019-05-25T09:10:42.180Z,20.21
2019-05-25T09:11:42.160Z,20.14
2019-05-25T09:12:42.156Z,20.28
2019-05-25T09:13:42.141Z,20.28
2019-05-25T09:14:42.125Z,20.28
2019-05-25T09:15:42.129Z,20.20
2019-05-25T09:16:42.106Z,20.31
2019-05-25T09:17:42.095Z,20.33
2019-05-25T09:18:47.109Z,20.41
2019-05-25T09:19:42.085Z,20.43
2019-05-25T09:20:42.079Z,20.51
2019-05-25T09:21:42.048Z,20.47
2019-05-25T09:22:42.039Z,20.51
2019-05-25T09:23:42.024Z,20.59
2019-05-25T09:24:42.015Z,20.67
2019-05-25T09:25:42.015Z,20.72
2019-05-25T09:26:41.992Z,20.79
2019-05-25T09:27:41.991Z,20.85
2019-05-25T09:28:41.977Z,20.88
2019-05-25T09:29:46.984Z,20.95
2019-05-25T09:30:41.972Z,21.12
2019-05-25T09:31:41.941Z,21.28
2019-05-25T09:32:41.929Z,21.34
2019-05-25T09:33:41.918Z,21.37
2019-05-25T09:34:41.924Z,21.35
2019-05-25T09:35:41.909Z,21.35
2019-05-25T09:36:41.885Z,21.38
2019-05-25T09:37:41.872Z,21.34
2019-05-25T09:38:43.401Z,21.42
2019-05-25T09:39:41.854Z,21.38
2019-05-25T09:40:46.885Z,21.50
2019-05-25T09:41:41.842Z,21.65
2019-05-25T09:42:41.839Z,22.02
2019-05-25T09:43:41.806Z,22.14
2019-05-25T09:44:41.796Z,22.15
2019-05-25T09:45:41.785Z,22.14
2019-05-25T09:46:41.786Z,22.40
2019-05-25T09:47:41.771Z,22.75
2019-05-25T09:48:41.776Z,22.62
2019-05-25T09:49:41.741Z,22.55
2019-05-25T09:50:41.748Z,22.30
2019-05-25T09:51:48.584Z,22.00
2019-05-25T09:52:41.715Z,21.91
2019-05-25T09:53:41.748Z,21.92
2019-05-25T09:54:41.687Z,21.82
2019-05-25T09:55:41.696Z,21.86
2019-05-25T09:56:41.674Z,21.83
2019-05-25T09:57:42.049Z,21.94
2019-05-25T09:58:41.662Z,22.02
2019-05-25T09:59:41.650Z,22.21
2019-05-25T10:00:41.631Z,22.20
2019-05-25T10:01:41.667Z,22.27
2019-05-25T10:02:46.879Z,22.15
2019-05-25T10:03:41.587Z,21.99
2019-05-25T10:04:41.579Z,21.92
2019-05-25T10:05:41.570Z,21.92
2019-05-25T10:06:41.566Z,21.91
2019-05-25T10:07:41.544Z,21.92
2019-05-25T10:08:41.534Z,21.98
2019-05-25T10:09:41.541Z,22.05
2019-05-25T10:10:41.521Z,22.00
2019-05-25T10:11:41.520Z,21.91
2019-05-25T10:12:41.487Z,21.90
2019-05-25T10:13:46.499Z,21.96
2019-05-25T10:14:41.481Z,21.98
2019-05-25T10:15:41.456Z,21.99
2019-05-25T10:16:41.465Z,22.00
2019-05-25T10:17:41.435Z,21.91
2019-05-25T10:18:41.426Z,21.84
2019-05-25T10:19:41.489Z,21.86
2019-05-25T10:20:41.400Z,21.84
2019-05-25T10:21:41.412Z,21.71
2019-05-25T10:22:41.379Z,21.79
2019-05-25T10:23:41.366Z,21.71
2019-05-25T10:24:46.379Z,21.84
2019-05-25T10:25:41.344Z,21.86
2019-05-25T10:26:41.334Z,21.68
2019-05-25T10:27:41.338Z,21.79
2019-05-25T10:28:41.311Z,21.74
2019-05-25T10:29:41.301Z,21.82
2019-05-25T10:30:41.287Z,21.79
2019-05-25T10:31:41.279Z,21.91
2019-05-25T10:32:41.329Z,21.91
2019-05-25T10:33:41.285Z,21.90
2019-05-25T10:34:41.258Z,21.96
2019-05-25T10:35:46.289Z,22.00
2019-05-25T10:36:41.218Z,22.10
2019-05-25T10:37:41.234Z,22.14
2019-05-25T10:38:41.199Z,22.30
2019-05-25T10:39:41.211Z,22.35
2019-05-25T10:40:41.173Z,22.37
2019-05-25T10:41:41.165Z,22.28
2019-05-25T10:42:41.190Z,22.28
2019-05-25T10:43:41.139Z,22.28
2019-05-25T10:44:41.131Z,22.33
2019-05-25T10:45:41.126Z,22.35
2019-05-25T10:46:46.132Z,22.33
2019-05-25T10:47:41.119Z,22.33
2019-05-25T10:48:41.140Z,22.40
2019-05-25T10:49:41.095Z,22.47
2019-05-25T10:50:41.082Z,22.43
2019-05-25T10:51:41.053Z,22.64
2019-05-25T10:52:41.051Z,22.60
2019-05-25T10:53:41.032Z,22.57
2019-05-25T10:54:41.018Z,22.58
2019-05-25T10:55:41.015Z,22.68
2019-05-25T10:56:41.001Z,22.70
2019-05-25T10:57:46.021Z,22.73
2019-05-25T10:58:40.979Z,22.79
2019-05-25T10:59:52.516Z,22.80
2019-05-25T11:00:41.953Z,22.80
2019-05-25T11:01:40.942Z,22.91
2019-05-25T11:02:40.946Z,22.92
2019-05-25T11:03:40.918Z,23.01
2019-05-25T11:04:40.912Z,23.19
2019-05-25T11:05:40.901Z,23.27
2019-05-25T11:06:40.891Z,23.28
2019-05-25T11:07:40.895Z,23.46
2019-05-25T11:08:45.888Z,23.61
2019-05-25T11:09:40.853Z,23.72
2019-05-25T11:10:40.843Z,23.53
2019-05-25T11:11:40.835Z,23.48
2019-05-25T11:12:40.849Z,23.28
2019-05-25T11:13:40.814Z,23.22
2019-05-25T11:14:40.806Z,23.22
2019-05-25T11:15:40.789Z,23.12
2019-05-25T11:16:40.786Z,22.97
2019-05-25T11:17:40.773Z,22.77
2019-05-25T11:18:40.774Z,22.72
2019-05-25T11:19:45.768Z,22.54
2019-05-25T11:20:40.736Z,22.47
2019-05-25T11:21:40.723Z,22.43
2019-05-25T11:22:40.728Z,22.35
2019-05-25T11:23:40.715Z,22.31
2019-05-25T11:24:40.692Z,22.25
2019-05-25T11:25:40.683Z,22.30
2019-05-25T11:26:40.673Z,22.28
2019-05-25T11:27:40.661Z,22.28
2019-05-25T11:28:40.661Z,22.28
2019-05-25T11:29:40.638Z,22.14
2019-05-25T11:30:45.653Z,22.15
2019-05-25T11:31:40.617Z,21.94
2019-05-25T11:32:40.602Z,22.12
2019-05-25T11:33:40.608Z,22.10
2019-05-25T11:34:40.584Z,22.05
2019-05-25T11:35:40.616Z,22.27
2019-05-25T11:36:40.565Z,22.07
2019-05-25T11:37:40.550Z,22.10
2019-05-25T11:38:40.565Z,22.09
2019-05-25T11:39:40.533Z,22.31
2019-05-25T11:40:40.529Z,22.21
2019-05-25T11:41:45.529Z,22.30
2019-05-25T11:42:40.529Z,22.42
2019-05-25T11:43:40.486Z,22.52
2019-05-25T11:44:40.494Z,22.46
2019-05-25T11:45:40.469Z,22.57
2019-05-25T11:46:40.452Z,22.49
2019-05-25T11:47:40.444Z,22.77
2019-05-25T11:48:40.429Z,23.10
2019-05-25T11:49:40.428Z,23.38
2019-05-25T11:50:40.405Z,23.90
2019-05-25T11:51:40.398Z,24.37
2019-05-25T11:52:45.705Z,24.64
2019-05-25T11:53:40.378Z,25.03
2019-05-25T11:54:40.371Z,24.84
2019-05-25T11:55:40.351Z,24.68
2019-05-25T11:56:40.347Z,25.18
2019-05-25T11:57:40.331Z,25.30
2019-05-25T11:58:47.549Z,25.27
2019-05-25T11:59:41.326Z,25.39
2019-05-25T12:00:40.295Z,25.64
2019-05-25T12:01:40.300Z,25.76
2019-05-25T12:02:40.276Z,25.51
2019-05-25T12:03:45.287Z,25.75
2019-05-25T12:04:40.267Z,25.75
2019-05-25T12:05:40.275Z,26.02
2019-05-25T12:06:40.231Z,26.39
2019-05-25T12:07:43.964Z,26.62
2019-05-25T12:08:40.210Z,26.75
2019-05-25T12:09:40.226Z,26.92
2019-05-25T12:10:40.193Z,27.04
2019-05-25T12:11:40.184Z,27.27
2019-05-25T12:12:40.169Z,27.36
2019-05-25T12:13:40.164Z,26.70
2019-05-25T12:14:45.180Z,26.37
2019-05-25T12:15:40.164Z,26.12
2019-05-25T12:16:40.151Z,25.95
2019-05-25T12:17:40.126Z,26.23
2019-05-25T12:18:40.109Z,26.58
2019-05-25T12:19:40.109Z,26.99
2019-05-25T12:20:40.081Z,27.28
2019-05-25T12:21:40.082Z,27.54
2019-05-25T12:22:40.127Z,27.65
2019-05-25T12:23:40.061Z,27.77
2019-05-25T12:24:40.053Z,27.93
2019-05-25T12:25:40.064Z,27.85
2019-05-25T12:26:40.041Z,27.74
2019-05-25T12:27:48.828Z,27.59
2019-05-25T12:28:40.020Z,27.19
2019-05-25T12:29:40.021Z,26.95
2019-05-25T12:30:41.317Z,26.75
2019-05-25T12:31:39.966Z,26.43
2019-05-25T12:32:39.957Z,26.33
2019-05-25T12:33:39.947Z,26.09
2019-05-25T12:34:39.949Z,25.90
2019-05-25T12:35:39.926Z,25.69
2019-05-25T12:36:39.913Z,25.47
2019-05-25T12:37:39.899Z,25.40
2019-05-25T12:38:39.892Z,25.32
2019-05-25T12:39:39.898Z,25.18
2019-05-25T12:40:53.139Z,25.18
2019-05-25T12:41:40.884Z,25.17
2019-05-25T12:42:39.874Z,25.00
2019-05-25T12:43:39.837Z,24.96
2019-05-25T12:44:39.824Z,24.77
2019-05-25T12:45:42.092Z,24.71
2019-05-25T12:46:39.802Z,24.65
2019-05-25T12:47:39.834Z,24.67
2019-05-25T12:48:39.784Z,24.62
2019-05-25T12:49:49.951Z,24.67
2019-05-25T12:50:40.770Z,24.61
2019-05-25T12:51:39.750Z,24.58
2019-05-25T12:52:39.738Z,24.49